DIY weather

Diyarbakir Airport
Diyarbakir, Diyarbakir Province, Turkey

Public forecast

Using degrees Celsius for public forecast. Weather courtesy of forecast.io.

Current aviation weather report (METAR) for Diyarbakir Airport

Retrieved 2020/04/09 23:20 UTC (32 minutes ago):

LTCC 092320Z 31004KT 9999 FEW040 SCT100 BKN200 08/06 Q1007 NOSIG

Aviation forecast (TAF) for Diyarbakir Airport

Retrieved 2020/04/09 18:03 UTC (6 hours ago):

TAF LTCC 091640Z 0918/1018 35008KT 9999 SCT040 BKN100 TEMPO 0918/0922 VRB15G25KT -TSRA FEW025CB BKN035 PROB40 TEMPO 1003/1006 VRB15G25KT -TSRA FEW025CB BKN035 TEMPO 1006/1010 VRB15G25KT -TSRA FEW025CB BKN035 TEMPO 1010/1014 VRB15G25KT -TSRA FEW025CB BKN035